sensor_id;sensor_type;location;lat;lon;timestamp;P1;durP1;ratioP1;P2;durP2;ratioP2
65206;SDS011;58477;48.072;11.970;2023-07-09T00:01:59;11.90;;;6.40;;
65206;SDS011;58477;48.072;11.970;2023-07-09T00:04:24;10.75;;;6.20;;
65206;SDS011;58477;48.072;11.970;2023-07-09T00:06:50;10.32;;;5.35;;
65206;SDS011;58477;48.072;11.970;2023-07-09T00:09:17;12.98;;;5.95;;
65206;SDS011;58477;48.072;11.970;2023-07-09T00:11:44;9.85;;;5.63;;
65206;SDS011;58477;48.072;11.970;2023-07-09T00:14:11;11.23;;;5.82;;
65206;SDS011;58477;48.072;11.970;2023-07-09T00:16:38;10.75;;;6.25;;
65206;SDS011;58477;48.072;11.970;2023-07-09T00:19:09;9.52;;;6.00;;
65206;SDS011;58477;48.072;11.970;2023-07-09T00:21:39;9.85;;;6.20;;
65206;SDS011;58477;48.072;11.970;2023-07-09T00:24:06;9.88;;;6.47;;
65206;SDS011;58477;48.072;11.970;2023-07-09T00:26:32;11.68;;;6.38;;
65206;SDS011;58477;48.072;11.970;2023-07-09T00:28:58;11.77;;;6.15;;
65206;SDS011;58477;48.072;11.970;2023-07-09T00:31:24;10.98;;;5.97;;
65206;SDS011;58477;48.072;11.970;2023-07-09T00:33:51;10.38;;;6.15;;
65206;SDS011;58477;48.072;11.970;2023-07-09T00:38:51;10.40;;;6.05;;
65206;SDS011;58477;48.072;11.970;2023-07-09T00:41:18;8.65;;;5.75;;
65206;SDS011;58477;48.072;11.970;2023-07-09T00:43:45;10.93;;;6.03;;
65206;SDS011;58477;48.072;11.970;2023-07-09T00:48:55;11.65;;;5.97;;
65206;SDS011;58477;48.072;11.970;2023-07-09T00:51:23;9.73;;;5.88;;
65206;SDS011;58477;48.072;11.970;2023-07-09T00:53:51;10.35;;;6.43;;
65206;SDS011;58477;48.072;11.970;2023-07-09T00:56:26;10.38;;;6.43;;
65206;SDS011;58477;48.072;11.970;2023-07-09T00:58:59;12.25;;;7.13;;
65206;SDS011;58477;48.072;11.970;2023-07-09T01:01:30;15.05;;;6.95;;
65206;SDS011;58477;48.072;11.970;2023-07-09T01:03:57;10.32;;;6.47;;
65206;SDS011;58477;48.072;11.970;2023-07-09T01:06:44;13.35;;;6.82;;
65206;SDS011;58477;48.072;11.970;2023-07-09T01:09:13;12.15;;;6.07;;
65206;SDS011;58477;48.072;11.970;2023-07-09T01:11:40;11.20;;;7.10;;
65206;SDS011;58477;48.072;11.970;2023-07-09T01:14:06;11.57;;;6.55;;
65206;SDS011;58477;48.072;11.970;2023-07-09T01:16:36;14.95;;;6.60;;
65206;SDS011;58477;48.072;11.970;2023-07-09T01:19:03;11.80;;;7.18;;
65206;SDS011;58477;48.072;11.970;2023-07-09T01:21:30;10.35;;;7.03;;
65206;SDS011;58477;48.072;11.970;2023-07-09T01:23:56;10.82;;;6.45;;
65206;SDS011;58477;48.072;11.970;2023-07-09T01:26:23;10.25;;;6.63;;
65206;SDS011;58477;48.072;11.970;2023-07-09T01:28:51;11.07;;;5.75;;
65206;SDS011;58477;48.072;11.970;2023-07-09T01:31:17;10.63;;;6.70;;
65206;SDS011;58477;48.072;11.970;2023-07-09T01:33:43;11.60;;;6.78;;
65206;SDS011;58477;48.072;11.970;2023-07-09T01:36:13;9.20;;;6.05;;
65206;SDS011;58477;48.072;11.970;2023-07-09T01:38:41;13.10;;;6.40;;
65206;SDS011;58477;48.072;11.970;2023-07-09T01:41:08;11.15;;;6.18;;
65206;SDS011;58477;48.072;11.970;2023-07-09T01:43:36;13.38;;;6.40;;
65206;SDS011;58477;48.072;11.970;2023-07-09T01:46:02;11.15;;;6.65;;
65206;SDS011;58477;48.072;11.970;2023-07-09T01:48:27;9.10;;;5.90;;
65206;SDS011;58477;48.072;11.970;2023-07-09T01:50:53;12.48;;;6.30;;
65206;SDS011;58477;48.072;11.970;2023-07-09T01:53:23;10.25;;;5.95;;
65206;SDS011;58477;48.072;11.970;2023-07-09T01:55:51;10.50;;;5.88;;
65206;SDS011;58477;48.072;11.970;2023-07-09T01:58:17;9.73;;;6.00;;
65206;SDS011;58477;48.072;11.970;2023-07-09T02:00:43;11.77;;;6.05;;
65206;SDS011;58477;48.072;11.970;2023-07-09T02:03:10;10.15;;;6.20;;
65206;SDS011;58477;48.072;11.970;2023-07-09T02:05:36;8.23;;;5.38;;
65206;SDS011;58477;48.072;11.970;2023-07-09T02:08:02;9.25;;;5.70;;
65206;SDS011;58477;48.072;11.970;2023-07-09T02:10:29;8.95;;;5.55;;
65206;SDS011;58477;48.072;11.970;2023-07-09T02:12:55;10.48;;;5.93;;
65206;SDS011;58477;48.072;11.970;2023-07-09T02:15:20;10.20;;;5.53;;
65206;SDS011;58477;48.072;11.970;2023-07-09T02:17:46;9.02;;;5.65;;
65206;SDS011;58477;48.072;11.970;2023-07-09T02:20:12;10.15;;;5.35;;
65206;SDS011;58477;48.072;11.970;2023-07-09T02:22:39;6.35;;;4.60;;
65206;SDS011;58477;48.072;11.970;2023-07-09T02:25:05;9.57;;;4.75;;
65206;SDS011;58477;48.072;11.970;2023-07-09T02:27:32;10.30;;;5.43;;
65206;SDS011;58477;48.072;11.970;2023-07-09T02:29:58;8.45;;;5.18;;
65206;SDS011;58477;48.072;11.970;2023-07-09T02:32:25;8.52;;;4.90;;
65206;SDS011;58477;48.072;11.970;2023-07-09T02:34:51;7.57;;;5.47;;
65206;SDS011;58477;48.072;11.970;2023-07-09T02:37:19;9.10;;;4.90;;
65206;SDS011;58477;48.072;11.970;2023-07-09T02:39:46;8.52;;;4.85;;
65206;SDS011;58477;48.072;11.970;2023-07-09T02:42:12;9.18;;;5.07;;
65206;SDS011;58477;48.072;11.970;2023-07-09T02:44:39;6.32;;;4.90;;
65206;SDS011;58477;48.072;11.970;2023-07-09T02:47:06;8.98;;;5.32;;
65206;SDS011;58477;48.072;11.970;2023-07-09T02:49:31;7.80;;;5.22;;
65206;SDS011;58477;48.072;11.970;2023-07-09T02:51:57;7.65;;;4.82;;
65206;SDS011;58477;48.072;11.970;2023-07-09T02:54:22;8.63;;;4.82;;
65206;SDS011;58477;48.072;11.970;2023-07-09T02:56:48;9.15;;;5.28;;
65206;SDS011;58477;48.072;11.970;2023-07-09T02:59:14;7.03;;;4.65;;
65206;SDS011;58477;48.072;11.970;2023-07-09T03:01:39;8.43;;;5.00;;
65206;SDS011;58477;48.072;11.970;2023-07-09T03:04:05;7.40;;;4.80;;
65206;SDS011;58477;48.072;11.970;2023-07-09T03:06:31;8.88;;;4.47;;
65206;SDS011;58477;48.072;11.970;2023-07-09T03:08:58;8.13;;;5.15;;
65206;SDS011;58477;48.072;11.970;2023-07-09T03:11:25;7.28;;;4.47;;
65206;SDS011;58477;48.072;11.970;2023-07-09T03:13:50;6.07;;;4.47;;
65206;SDS011;58477;48.072;11.970;2023-07-09T03:16:16;7.10;;;4.47;;
65206;SDS011;58477;48.072;11.970;2023-07-09T03:18:44;6.78;;;4.75;;
65206;SDS011;58477;48.072;11.970;2023-07-09T03:21:10;10.98;;;5.47;;
65206;SDS011;58477;48.072;11.970;2023-07-09T03:23:35;7.68;;;4.65;;
65206;SDS011;58477;48.072;11.970;2023-07-09T03:26:00;6.00;;;4.43;;
65206;SDS011;58477;48.072;11.970;2023-07-09T03:28:26;8.30;;;4.55;;
65206;SDS011;58477;48.072;11.970;2023-07-09T03:30:53;7.90;;;4.93;;
65206;SDS011;58477;48.072;11.970;2023-07-09T03:33:20;7.88;;;4.95;;
65206;SDS011;58477;48.072;11.970;2023-07-09T03:35:46;7.07;;;4.60;;
65206;SDS011;58477;48.072;11.970;2023-07-09T03:38:11;8.70;;;5.00;;
65206;SDS011;58477;48.072;11.970;2023-07-09T03:40:37;8.18;;;4.97;;
65206;SDS011;58477;48.072;11.970;2023-07-09T03:43:07;8.73;;;5.15;;
65206;SDS011;58477;48.072;11.970;2023-07-09T03:45:34;7.70;;;4.75;;
65206;SDS011;58477;48.072;11.970;2023-07-09T03:48:00;9.85;;;4.70;;
65206;SDS011;58477;48.072;11.970;2023-07-09T03:50:26;8.43;;;5.32;;
65206;SDS011;58477;48.072;11.970;2023-07-09T03:52:52;10.23;;;5.40;;
65206;SDS011;58477;48.072;11.970;2023-07-09T03:55:17;7.13;;;4.72;;
65206;SDS011;58477;48.072;11.970;2023-07-09T03:57:43;8.43;;;4.78;;
65206;SDS011;58477;48.072;11.970;2023-07-09T04:00:08;7.05;;;4.65;;
65206;SDS011;58477;48.072;11.970;2023-07-09T04:02:43;6.63;;;4.82;;
65206;SDS011;58477;48.072;11.970;2023-07-09T04:05:09;7.88;;;5.15;;
65206;SDS011;58477;48.072;11.970;2023-07-09T04:07:35;11.05;;;5.13;;
65206;SDS011;58477;48.072;11.970;2023-07-09T04:10:01;9.57;;;5.38;;
65206;SDS011;58477;48.072;11.970;2023-07-09T04:12:26;10.32;;;5.03;;
65206;SDS011;58477;48.072;11.970;2023-07-09T04:14:52;9.02;;;5.40;;
65206;SDS011;58477;48.072;11.970;2023-07-09T04:17:18;7.00;;;5.07;;
65206;SDS011;58477;48.072;11.970;2023-07-09T04:19:43;8.77;;;5.90;;
65206;SDS011;58477;48.072;11.970;2023-07-09T04:22:10;9.45;;;5.47;;
65206;SDS011;58477;48.072;11.970;2023-07-09T04:24:36;10.18;;;5.43;;
65206;SDS011;58477;48.072;11.970;2023-07-09T04:27:01;11.00;;;5.15;;
65206;SDS011;58477;48.072;11.970;2023-07-09T04:29:28;10.93;;;5.45;;
65206;SDS011;58477;48.072;11.970;2023-07-09T04:31:54;7.65;;;5.45;;
65206;SDS011;58477;48.072;11.970;2023-07-09T04:34:19;6.90;;;5.10;;
65206;SDS011;58477;48.072;11.970;2023-07-09T04:36:45;10.57;;;4.93;;
65206;SDS011;58477;48.072;11.970;2023-07-09T04:39:10;7.35;;;5.07;;
65206;SDS011;58477;48.072;11.970;2023-07-09T04:41:36;10.07;;;5.55;;
65206;SDS011;58477;48.072;11.970;2023-07-09T04:44:01;8.60;;;4.95;;
65206;SDS011;58477;48.072;11.970;2023-07-09T04:46:26;8.07;;;5.32;;
65206;SDS011;58477;48.072;11.970;2023-07-09T04:48:52;7.10;;;4.82;;
65206;SDS011;58477;48.072;11.970;2023-07-09T04:51:17;10.23;;;4.78;;
65206;SDS011;58477;48.072;11.970;2023-07-09T04:53:43;7.78;;;4.63;;
65206;SDS011;58477;48.072;11.970;2023-07-09T04:56:08;6.53;;;4.60;;
65206;SDS011;58477;48.072;11.970;2023-07-09T04:58:34;9.13;;;4.50;;
65206;SDS011;58477;48.072;11.970;2023-07-09T05:01:00;9.23;;;5.00;;
65206;SDS011;58477;48.072;11.970;2023-07-09T05:03:25;10.10;;;5.68;;
65206;SDS011;58477;48.072;11.970;2023-07-09T05:05:51;7.40;;;5.05;;
65206;SDS011;58477;48.072;11.970;2023-07-09T05:08:17;8.18;;;5.10;;
65206;SDS011;58477;48.072;11.970;2023-07-09T05:10:46;9.23;;;5.82;;
65206;SDS011;58477;48.072;11.970;2023-07-09T05:13:14;8.40;;;4.85;;
65206;SDS011;58477;48.072;11.970;2023-07-09T05:15:41;7.95;;;4.68;;
65206;SDS011;58477;48.072;11.970;2023-07-09T05:18:09;9.68;;;4.80;;
65206;SDS011;58477;48.072;11.970;2023-07-09T05:20:36;8.13;;;4.72;;
65206;SDS011;58477;48.072;11.970;2023-07-09T05:23:01;6.35;;;4.60;;
65206;SDS011;58477;48.072;11.970;2023-07-09T05:25:27;7.90;;;4.53;;
65206;SDS011;58477;48.072;11.970;2023-07-09T05:27:53;8.98;;;4.43;;
65206;SDS011;58477;48.072;11.970;2023-07-09T05:30:18;7.18;;;4.45;;
65206;SDS011;58477;48.072;11.970;2023-07-09T05:32:44;9.77;;;4.25;;
65206;SDS011;58477;48.072;11.970;2023-07-09T05:35:10;6.15;;;4.50;;
65206;SDS011;58477;48.072;11.970;2023-07-09T05:37:36;7.60;;;4.70;;
65206;SDS011;58477;48.072;11.970;2023-07-09T05:40:03;6.55;;;4.88;;
65206;SDS011;58477;48.072;11.970;2023-07-09T05:42:30;9.82;;;4.18;;
65206;SDS011;58477;48.072;11.970;2023-07-09T05:44:56;8.20;;;4.40;;
65206;SDS011;58477;48.072;11.970;2023-07-09T05:47:22;6.47;;;4.18;;
65206;SDS011;58477;48.072;11.970;2023-07-09T05:49:48;6.20;;;3.90;;
65206;SDS011;58477;48.072;11.970;2023-07-09T05:52:20;5.97;;;4.00;;
65206;SDS011;58477;48.072;11.970;2023-07-09T05:54:50;6.28;;;3.78;;
65206;SDS011;58477;48.072;11.970;2023-07-09T05:57:16;5.53;;;3.55;;
65206;SDS011;58477;48.072;11.970;2023-07-09T05:59:42;4.72;;;3.60;;
65206;SDS011;58477;48.072;11.970;2023-07-09T06:02:11;5.70;;;3.88;;
65206;SDS011;58477;48.072;11.970;2023-07-09T06:04:37;5.70;;;3.97;;
65206;SDS011;58477;48.072;11.970;2023-07-09T06:07:03;8.52;;;3.75;;
65206;SDS011;58477;48.072;11.970;2023-07-09T06:09:29;10.13;;;3.65;;
65206;SDS011;58477;48.072;11.970;2023-07-09T06:11:55;6.78;;;3.65;;
65206;SDS011;58477;48.072;11.970;2023-07-09T06:14:20;7.35;;;3.72;;
65206;SDS011;58477;48.072;11.970;2023-07-09T06:16:45;5.68;;;3.90;;
65206;SDS011;58477;48.072;11.970;2023-07-09T06:19:11;6.85;;;3.90;;
65206;SDS011;58477;48.072;11.970;2023-07-09T06:21:36;5.18;;;4.03;;
65206;SDS011;58477;48.072;11.970;2023-07-09T06:24:02;5.35;;;3.42;;
65206;SDS011;58477;48.072;11.970;2023-07-09T06:26:27;5.22;;;3.38;;
65206;SDS011;58477;48.072;11.970;2023-07-09T06:28:53;6.93;;;3.70;;
65206;SDS011;58477;48.072;11.970;2023-07-09T06:31:18;6.53;;;3.55;;
65206;SDS011;58477;48.072;11.970;2023-07-09T06:33:46;6.18;;;4.00;;
65206;SDS011;58477;48.072;11.970;2023-07-09T06:36:12;7.55;;;3.80;;
65206;SDS011;58477;48.072;11.970;2023-07-09T06:38:38;10.05;;;4.20;;
65206;SDS011;58477;48.072;11.970;2023-07-09T06:41:03;5.32;;;3.80;;
65206;SDS011;58477;48.072;11.970;2023-07-09T06:43:29;4.43;;;3.85;;
65206;SDS011;58477;48.072;11.970;2023-07-09T06:46:00;5.70;;;3.40;;
65206;SDS011;58477;48.072;11.970;2023-07-09T06:48:27;9.25;;;3.80;;
65206;SDS011;58477;48.072;11.970;2023-07-09T06:50:54;4.53;;;3.40;;
65206;SDS011;58477;48.072;11.970;2023-07-09T06:53:21;4.70;;;3.20;;
65206;SDS011;58477;48.072;11.970;2023-07-09T06:55:47;7.50;;;3.67;;
65206;SDS011;58477;48.072;11.970;2023-07-09T06:58:18;8.13;;;3.95;;
65206;SDS011;58477;48.072;11.970;2023-07-09T07:00:44;8.85;;;3.38;;
65206;SDS011;58477;48.072;11.970;2023-07-09T07:03:10;4.88;;;3.15;;
65206;SDS011;58477;48.072;11.970;2023-07-09T07:05:36;5.60;;;3.40;;
65206;SDS011;58477;48.072;11.970;2023-07-09T07:08:02;11.07;;;3.70;;
65206;SDS011;58477;48.072;11.970;2023-07-09T07:10:28;6.72;;;2.95;;
65206;SDS011;58477;48.072;11.970;2023-07-09T07:12:55;4.13;;;3.40;;
65206;SDS011;58477;48.072;11.970;2023-07-09T07:15:20;5.18;;;3.40;;
65206;SDS011;58477;48.072;11.970;2023-07-09T07:17:46;3.92;;;3.17;;
65206;SDS011;58477;48.072;11.970;2023-07-09T07:20:12;5.45;;;3.13;;
65206;SDS011;58477;48.072;11.970;2023-07-09T07:22:40;5.03;;;3.05;;
65206;SDS011;58477;48.072;11.970;2023-07-09T07:25:06;2.97;;;2.60;;
65206;SDS011;58477;48.072;11.970;2023-07-09T07:27:33;4.72;;;2.92;;
65206;SDS011;58477;48.072;11.970;2023-07-09T07:29:59;4.57;;;3.05;;
65206;SDS011;58477;48.072;11.970;2023-07-09T07:32:26;4.30;;;2.85;;
65206;SDS011;58477;48.072;11.970;2023-07-09T07:34:51;6.18;;;2.70;;
65206;SDS011;58477;48.072;11.970;2023-07-09T07:37:18;10.10;;;3.30;;
65206;SDS011;58477;48.072;11.970;2023-07-09T07:39:46;3.42;;;2.83;;
65206;SDS011;58477;48.072;11.970;2023-07-09T07:42:12;2.85;;;2.58;;
65206;SDS011;58477;48.072;11.970;2023-07-09T07:44:37;5.82;;;3.05;;
65206;SDS011;58477;48.072;11.970;2023-07-09T07:47:03;3.15;;;2.60;;
65206;SDS011;58477;48.072;11.970;2023-07-09T07:49:29;5.78;;;3.00;;
65206;SDS011;58477;48.072;11.970;2023-07-09T07:51:54;7.85;;;2.90;;
65206;SDS011;58477;48.072;11.970;2023-07-09T07:54:21;7.43;;;2.70;;
65206;SDS011;58477;48.072;11.970;2023-07-09T07:56:46;5.13;;;2.95;;
65206;SDS011;58477;48.072;11.970;2023-07-09T07:59:12;5.22;;;2.70;;
65206;SDS011;58477;48.072;11.970;2023-07-09T08:01:37;4.50;;;2.80;;
65206;SDS011;58477;48.072;11.970;2023-07-09T08:04:02;3.65;;;2.92;;
65206;SDS011;58477;48.072;11.970;2023-07-09T08:06:28;6.63;;;2.70;;
65206;SDS011;58477;48.072;11.970;2023-07-09T08:08:55;8.02;;;2.60;;
65206;SDS011;58477;48.072;11.970;2023-07-09T08:11:20;3.40;;;2.60;;
65206;SDS011;58477;48.072;11.970;2023-07-09T08:13:46;5.18;;;2.70;;
65206;SDS011;58477;48.072;11.970;2023-07-09T08:16:11;4.55;;;2.70;;
65206;SDS011;58477;48.072;11.970;2023-07-09T08:18:37;13.52;;;3.25;;
65206;SDS011;58477;48.072;11.970;2023-07-09T08:21:03;3.42;;;3.08;;
65206;SDS011;58477;48.072;11.970;2023-07-09T08:23:28;4.60;;;2.80;;
65206;SDS011;58477;48.072;11.970;2023-07-09T08:25:55;3.40;;;2.60;;
65206;SDS011;58477;48.072;11.970;2023-07-09T08:28:21;4.55;;;3.20;;
65206;SDS011;58477;48.072;11.970;2023-07-09T08:30:47;4.40;;;2.85;;
65206;SDS011;58477;48.072;11.970;2023-07-09T08:33:12;5.07;;;2.92;;
65206;SDS011;58477;48.072;11.970;2023-07-09T08:35:38;7.30;;;2.88;;
65206;SDS011;58477;48.072;11.970;2023-07-09T08:38:03;3.88;;;2.85;;
65206;SDS011;58477;48.072;11.970;2023-07-09T08:40:29;4.32;;;2.72;;
65206;SDS011;58477;48.072;11.970;2023-07-09T08:42:57;3.55;;;2.50;;
65206;SDS011;58477;48.072;11.970;2023-07-09T08:48:27;3.60;;;2.60;;
65206;SDS011;58477;48.072;11.970;2023-07-09T08:51:01;6.35;;;3.03;;
65206;SDS011;58477;48.072;11.970;2023-07-09T08:53:58;5.93;;;2.55;;
65206;SDS011;58477;48.072;11.970;2023-07-09T08:56:25;7.97;;;2.85;;
65206;SDS011;58477;48.072;11.970;2023-07-09T08:58:54;3.80;;;2.92;;
65206;SDS011;58477;48.072;11.970;2023-07-09T09:01:26;6.60;;;2.80;;
65206;SDS011;58477;48.072;11.970;2023-07-09T09:04:03;5.43;;;2.70;;
65206;SDS011;58477;48.072;11.970;2023-07-09T09:06:33;2.95;;;2.55;;
65206;SDS011;58477;48.072;11.970;2023-07-09T09:09:05;3.42;;;2.58;;
65206;SDS011;58477;48.072;11.970;2023-07-09T09:11:44;3.85;;;2.88;;
65206;SDS011;58477;48.072;11.970;2023-07-09T09:14:18;2.80;;;2.60;;
65206;SDS011;58477;48.072;11.970;2023-07-09T09:17:09;7.57;;;2.70;;
65206;SDS011;58477;48.072;11.970;2023-07-09T09:19:44;3.67;;;2.78;;
65206;SDS011;58477;48.072;11.970;2023-07-09T09:22:12;4.88;;;2.90;;
65206;SDS011;58477;48.072;11.970;2023-07-09T09:24:50;4.05;;;2.60;;
65206;SDS011;58477;48.072;11.970;2023-07-09T09:27:23;6.47;;;2.45;;
65206;SDS011;58477;48.072;11.970;2023-07-09T09:29:48;4.63;;;2.63;;
65206;SDS011;58477;48.072;11.970;2023-07-09T09:34:48;3.55;;;2.50;;
65206;SDS011;58477;48.072;11.970;2023-07-09T09:37:15;3.00;;;2.70;;
65206;SDS011;58477;48.072;11.970;2023-07-09T09:39:54;5.35;;;2.63;;
65206;SDS011;58477;48.072;11.970;2023-07-09T09:42:20;4.50;;;2.45;;
65206;SDS011;58477;48.072;11.970;2023-07-09T09:44:48;3.38;;;2.67;;
65206;SDS011;58477;48.072;11.970;2023-07-09T09:47:13;5.18;;;2.60;;
65206;SDS011;58477;48.072;11.970;2023-07-09T09:49:40;8.15;;;2.80;;
65206;SDS011;58477;48.072;11.970;2023-07-09T09:52:10;2.97;;;2.45;;
65206;SDS011;58477;48.072;11.970;2023-07-09T09:54:40;3.28;;;2.42;;
65206;SDS011;58477;48.072;11.970;2023-07-09T09:57:16;4.03;;;2.13;;
65206;SDS011;58477;48.072;11.970;2023-07-09T09:59:43;3.97;;;2.70;;
65206;SDS011;58477;48.072;11.970;2023-07-09T10:02:21;3.42;;;2.60;;
65206;SDS011;58477;48.072;11.970;2023-07-09T10:04:48;4.72;;;2.17;;
65206;SDS011;58477;48.072;11.970;2023-07-09T10:09:53;3.40;;;2.30;;
65206;SDS011;58477;48.072;11.970;2023-07-09T10:21:01;2.10;;;1.90;;
65206;SDS011;58477;48.072;11.970;2023-07-09T10:23:47;4.05;;;2.20;;
65206;SDS011;58477;48.072;11.970;2023-07-09T10:26:28;3.33;;;2.35;;
65206;SDS011;58477;48.072;11.970;2023-07-09T10:37:15;3.20;;;2.08;;
65206;SDS011;58477;48.072;11.970;2023-07-09T10:39:57;2.58;;;2.33;;
65206;SDS011;58477;48.072;11.970;2023-07-09T10:42:24;3.83;;;2.60;;
65206;SDS011;58477;48.072;11.970;2023-07-09T10:45:07;3.22;;;2.20;;
65206;SDS011;58477;48.072;11.970;2023-07-09T10:50:12;2.70;;;2.50;;
65206;SDS011;58477;48.072;11.970;2023-07-09T10:52:44;3.42;;;2.58;;
65206;SDS011;58477;48.072;11.970;2023-07-09T10:57:58;2.53;;;2.20;;
65206;SDS011;58477;48.072;11.970;2023-07-09T11:00:37;5.53;;;2.45;;
65206;SDS011;58477;48.072;11.970;2023-07-09T11:03:09;5.18;;;2.08;;
65206;SDS011;58477;48.072;11.970;2023-07-09T11:05:49;3.25;;;2.25;;
65206;SDS011;58477;48.072;11.970;2023-07-09T11:08:16;3.78;;;2.10;;
65206;SDS011;58477;48.072;11.970;2023-07-09T11:10:55;4.70;;;2.20;;
65206;SDS011;58477;48.072;11.970;2023-07-09T11:13:33;3.90;;;2.60;;
65206;SDS011;58477;48.072;11.970;2023-07-09T11:16:04;4.15;;;2.20;;
65206;SDS011;58477;48.072;11.970;2023-07-09T11:18:33;4.43;;;2.53;;
65206;SDS011;58477;48.072;11.970;2023-07-09T11:21:06;3.30;;;2.50;;
65206;SDS011;58477;48.072;11.970;2023-07-09T11:23:55;2.90;;;2.33;;
65206;SDS011;58477;48.072;11.970;2023-07-09T11:29:06;5.57;;;2.15;;
65206;SDS011;58477;48.072;11.970;2023-07-09T11:31:44;3.35;;;1.85;;
65206;SDS011;58477;48.072;11.970;2023-07-09T11:36:59;4.85;;;2.05;;
65206;SDS011;58477;48.072;11.970;2023-07-09T11:39:28;4.80;;;2.40;;
65206;SDS011;58477;48.072;11.970;2023-07-09T11:44:51;4.03;;;2.22;;
65206;SDS011;58477;48.072;11.970;2023-07-09T11:47:24;4.85;;;2.30;;
65206;SDS011;58477;48.072;11.970;2023-07-09T11:49:55;3.45;;;1.85;;
65206;SDS011;58477;48.072;11.970;2023-07-09T11:52:40;3.30;;;2.10;;
65206;SDS011;58477;48.072;11.970;2023-07-09T11:55:24;2.58;;;2.00;;
65206;SDS011;58477;48.072;11.970;2023-07-09T11:57:59;2.40;;;2.20;;
65206;SDS011;58477;48.072;11.970;2023-07-09T12:00:30;4.20;;;1.87;;
65206;SDS011;58477;48.072;11.970;2023-07-09T12:03:04;3.97;;;2.05;;
65206;SDS011;58477;48.072;11.970;2023-07-09T12:05:31;2.78;;;1.98;;
65206;SDS011;58477;48.072;11.970;2023-07-09T12:07:56;2.70;;;2.00;;
65206;SDS011;58477;48.072;11.970;2023-07-09T12:10:24;5.18;;;2.30;;
65206;SDS011;58477;48.072;11.970;2023-07-09T12:12:55;3.35;;;2.00;;
65206;SDS011;58477;48.072;11.970;2023-07-09T12:15:23;2.10;;;1.90;;
65206;SDS011;58477;48.072;11.970;2023-07-09T12:17:58;2.28;;;2.00;;
65206;SDS011;58477;48.072;11.970;2023-07-09T12:20:33;3.33;;;2.05;;
65206;SDS011;58477;48.072;11.970;2023-07-09T12:23:00;3.45;;;2.20;;
65206;SDS011;58477;48.072;11.970;2023-07-09T12:25:35;2.33;;;2.13;;
65206;SDS011;58477;48.072;11.970;2023-07-09T12:28:01;2.60;;;2.13;;
65206;SDS011;58477;48.072;11.970;2023-07-09T12:30:27;6.03;;;2.10;;
65206;SDS011;58477;48.072;11.970;2023-07-09T12:32:57;3.38;;;2.53;;
65206;SDS011;58477;48.072;11.970;2023-07-09T12:35:23;4.25;;;2.40;;
65206;SDS011;58477;48.072;11.970;2023-07-09T12:37:48;2.58;;;2.20;;
65206;SDS011;58477;48.072;11.970;2023-07-09T12:40:20;3.25;;;2.30;;
65206;SDS011;58477;48.072;11.970;2023-07-09T12:42:47;2.33;;;2.05;;
65206;SDS011;58477;48.072;11.970;2023-07-09T12:45:14;3.30;;;2.42;;
65206;SDS011;58477;48.072;11.970;2023-07-09T12:47:46;3.92;;;2.17;;
65206;SDS011;58477;48.072;11.970;2023-07-09T12:50:20;2.05;;;1.85;;
65206;SDS011;58477;48.072;11.970;2023-07-09T12:53:08;4.03;;;2.45;;
65206;SDS011;58477;48.072;11.970;2023-07-09T12:55:40;2.42;;;1.83;;
65206;SDS011;58477;48.072;11.970;2023-07-09T12:58:08;3.33;;;1.90;;
65206;SDS011;58477;48.072;11.970;2023-07-09T13:00:36;2.60;;;1.88;;
65206;SDS011;58477;48.072;11.970;2023-07-09T13:03:01;2.75;;;2.20;;
65206;SDS011;58477;48.072;11.970;2023-07-09T13:05:27;2.33;;;2.05;;
65206;SDS011;58477;48.072;11.970;2023-07-09T13:07:54;3.55;;;2.35;;
65206;SDS011;58477;48.072;11.970;2023-07-09T13:10:25;4.45;;;2.35;;
65206;SDS011;58477;48.072;11.970;2023-07-09T13:12:57;3.78;;;1.98;;
65206;SDS011;58477;48.072;11.970;2023-07-09T13:17:58;3.40;;;1.98;;
65206;SDS011;58477;48.072;11.970;2023-07-09T13:20:25;2.15;;;1.95;;
65206;SDS011;58477;48.072;11.970;2023-07-09T13:22:51;4.53;;;2.05;;
65206;SDS011;58477;48.072;11.970;2023-07-09T13:25:16;3.38;;;2.00;;
65206;SDS011;58477;48.072;11.970;2023-07-09T13:27:42;4.00;;;2.35;;
65206;SDS011;58477;48.072;11.970;2023-07-09T13:30:08;2.92;;;1.92;;
65206;SDS011;58477;48.072;11.970;2023-07-09T13:32:34;2.58;;;2.00;;
65206;SDS011;58477;48.072;11.970;2023-07-09T13:34:59;7.68;;;2.20;;
65206;SDS011;58477;48.072;11.970;2023-07-09T13:37:25;2.22;;;1.75;;
65206;SDS011;58477;48.072;11.970;2023-07-09T13:39:50;5.03;;;2.10;;
65206;SDS011;58477;48.072;11.970;2023-07-09T13:42:16;3.28;;;2.00;;
65206;SDS011;58477;48.072;11.970;2023-07-09T13:44:43;3.22;;;2.47;;
65206;SDS011;58477;48.072;11.970;2023-07-09T13:47:14;3.78;;;2.03;;
65206;SDS011;58477;48.072;11.970;2023-07-09T13:49:42;3.10;;;2.20;;
65206;SDS011;58477;48.072;11.970;2023-07-09T13:52:14;3.03;;;1.90;;
65206;SDS011;58477;48.072;11.970;2023-07-09T13:54:45;3.67;;;1.80;;
65206;SDS011;58477;48.072;11.970;2023-07-09T13:57:17;4.72;;;1.67;;
65206;SDS011;58477;48.072;11.970;2023-07-09T13:59:45;3.88;;;2.10;;
65206;SDS011;58477;48.072;11.970;2023-07-09T14:02:22;2.90;;;2.00;;
65206;SDS011;58477;48.072;11.970;2023-07-09T14:04:56;6.85;;;2.30;;
65206;SDS011;58477;48.072;11.970;2023-07-09T14:07:27;3.70;;;2.25;;
65206;SDS011;58477;48.072;11.970;2023-07-09T14:09:58;5.20;;;2.00;;
65206;SDS011;58477;48.072;11.970;2023-07-09T14:12:24;4.20;;;2.10;;
65206;SDS011;58477;48.072;11.970;2023-07-09T14:14:52;2.35;;;1.80;;
65206;SDS011;58477;48.072;11.970;2023-07-09T14:17:18;2.90;;;2.15;;
65206;SDS011;58477;48.072;11.970;2023-07-09T14:19:44;2.83;;;2.00;;
65206;SDS011;58477;48.072;11.970;2023-07-09T14:22:27;3.70;;;2.03;;
65206;SDS011;58477;48.072;11.970;2023-07-09T14:24:57;5.00;;;1.98;;
65206;SDS011;58477;48.072;11.970;2023-07-09T14:27:23;3.90;;;2.15;;
65206;SDS011;58477;48.072;11.970;2023-07-09T14:29:49;4.35;;;1.85;;
65206;SDS011;58477;48.072;11.970;2023-07-09T14:34:59;2.60;;;1.80;;
65206;SDS011;58477;48.072;11.970;2023-07-09T14:37:25;5.60;;;2.20;;
65206;SDS011;58477;48.072;11.970;2023-07-09T14:39:51;2.95;;;1.95;;
65206;SDS011;58477;48.072;11.970;2023-07-09T14:42:17;2.38;;;1.88;;
65206;SDS011;58477;48.072;11.970;2023-07-09T14:44:43;3.97;;;2.00;;
65206;SDS011;58477;48.072;11.970;2023-07-09T14:47:42;3.63;;;1.90;;
65206;SDS011;58477;48.072;11.970;2023-07-09T14:50:00;3.13;;;1.85;;
65206;SDS011;58477;48.072;11.970;2023-07-09T14:52:25;3.20;;;1.63;;
65206;SDS011;58477;48.072;11.970;2023-07-09T14:54:51;2.45;;;1.70;;
65206;SDS011;58477;48.072;11.970;2023-07-09T14:57:17;3.72;;;2.00;;
65206;SDS011;58477;48.072;11.970;2023-07-09T14:59:48;2.70;;;2.05;;
65206;SDS011;58477;48.072;11.970;2023-07-09T15:02:31;8.35;;;2.15;;
65206;SDS011;58477;48.072;11.970;2023-07-09T15:05:00;3.08;;;1.55;;
65206;SDS011;58477;48.072;11.970;2023-07-09T15:07:32;2.92;;;2.00;;
65206;SDS011;58477;48.072;11.970;2023-07-09T15:09:59;2.63;;;1.83;;
65206;SDS011;58477;48.072;11.970;2023-07-09T15:12:30;2.70;;;1.90;;
65206;SDS011;58477;48.072;11.970;2023-07-09T15:15:03;2.90;;;1.95;;
65206;SDS011;58477;48.072;11.970;2023-07-09T15:17:31;1.65;;;1.55;;
65206;SDS011;58477;48.072;11.970;2023-07-09T15:19:56;3.20;;;1.92;;
65206;SDS011;58477;48.072;11.970;2023-07-09T15:22:27;3.20;;;2.20;;
65206;SDS011;58477;48.072;11.970;2023-07-09T15:24:57;5.43;;;1.92;;
65206;SDS011;58477;48.072;11.970;2023-07-09T15:27:22;5.05;;;2.67;;
65206;SDS011;58477;48.072;11.970;2023-07-09T15:29:48;7.07;;;2.03;;